sensor_id;sensor_type;location;lat;lon;timestamp;temperature;humidity
10572;DHT22;5334;48.928;12.704;2023-06-22T00:00:51;19.20;99.90
10572;DHT22;5334;48.928;12.704;2023-06-22T00:03:21;19.20;99.90
10572;DHT22;5334;48.928;12.704;2023-06-22T00:05:48;19.20;99.90
10572;DHT22;5334;48.928;12.704;2023-06-22T00:08:14;19.20;99.90
10572;DHT22;5334;48.928;12.704;2023-06-22T00:10:40;19.20;99.90
10572;DHT22;5334;48.928;12.704;2023-06-22T00:13:07;19.20;99.90
10572;DHT22;5334;48.928;12.704;2023-06-22T00:15:33;19.20;99.90
10572;DHT22;5334;48.928;12.704;2023-06-22T00:17:59;19.20;99.90
10572;DHT22;5334;48.928;12.704;2023-06-22T00:20:25;19.10;99.90
10572;DHT22;5334;48.928;12.704;2023-06-22T00:22:54;19.10;99.90
10572;DHT22;5334;48.928;12.704;2023-06-22T00:25:21;19.00;99.90
10572;DHT22;5334;48.928;12.704;2023-06-22T00:27:47;19.00;99.90
10572;DHT22;5334;48.928;12.704;2023-06-22T00:30:13;19.00;99.90
10572;DHT22;5334;48.928;12.704;2023-06-22T00:32:39;19.00;99.90
10572;DHT22;5334;48.928;12.704;2023-06-22T00:35:05;19.00;99.90
10572;DHT22;5334;48.928;12.704;2023-06-22T00:37:30;19.00;99.90
10572;DHT22;5334;48.928;12.704;2023-06-22T00:39:56;18.90;99.90
10572;DHT22;5334;48.928;12.704;2023-06-22T00:42:22;18.90;99.90
10572;DHT22;5334;48.928;12.704;2023-06-22T00:44:48;18.90;99.90
10572;DHT22;5334;48.928;12.704;2023-06-22T00:47:16;18.90;99.90
10572;DHT22;5334;48.928;12.704;2023-06-22T00:49:43;18.90;99.90
10572;DHT22;5334;48.928;12.704;2023-06-22T00:52:10;18.80;99.90
10572;DHT22;5334;48.928;12.704;2023-06-22T00:54:40;18.80;99.90
10572;DHT22;5334;48.928;12.704;2023-06-22T00:57:12;18.80;99.90
10572;DHT22;5334;48.928;12.704;2023-06-22T00:59:42;18.80;99.90
10572;DHT22;5334;48.928;12.704;2023-06-22T01:02:08;18.80;99.90
10572;DHT22;5334;48.928;12.704;2023-06-22T01:04:36;18.80;99.90
10572;DHT22;5334;48.928;12.704;2023-06-22T01:10:24;18.70;99.90
10572;DHT22;5334;48.928;12.704;2023-06-22T01:12:57;18.70;99.90
10572;DHT22;5334;48.928;12.704;2023-06-22T01:15:35;18.70;99.90
10572;DHT22;5334;48.928;12.704;2023-06-22T01:18:04;18.60;99.90
10572;DHT22;5334;48.928;12.704;2023-06-22T01:20:34;18.70;99.90
10572;DHT22;5334;48.928;12.704;2023-06-22T01:26:08;18.70;99.90
10572;DHT22;5334;48.928;12.704;2023-06-22T01:28:50;18.70;99.90
10572;DHT22;5334;48.928;12.704;2023-06-22T01:31:19;18.70;99.90
10572;DHT22;5334;48.928;12.704;2023-06-22T01:33:55;18.70;99.90
10572;DHT22;5334;48.928;12.704;2023-06-22T01:36:24;18.60;99.90
10572;DHT22;5334;48.928;12.704;2023-06-22T01:38:50;18.60;99.90
10572;DHT22;5334;48.928;12.704;2023-06-22T01:41:18;18.60;99.90
10572;DHT22;5334;48.928;12.704;2023-06-22T01:43:45;18.60;99.90
10572;DHT22;5334;48.928;12.704;2023-06-22T01:46:11;18.50;99.90
10572;DHT22;5334;48.928;12.704;2023-06-22T01:48:38;18.50;99.90
10572;DHT22;5334;48.928;12.704;2023-06-22T01:51:04;18.40;99.90
10572;DHT22;5334;48.928;12.704;2023-06-22T01:53:30;18.30;99.90
10572;DHT22;5334;48.928;12.704;2023-06-22T01:55:57;18.30;99.90
10572;DHT22;5334;48.928;12.704;2023-06-22T01:58:26;18.30;99.90
10572;DHT22;5334;48.928;12.704;2023-06-22T02:01:12;18.30;99.90
10572;DHT22;5334;48.928;12.704;2023-06-22T02:04:08;18.20;99.90
10572;DHT22;5334;48.928;12.704;2023-06-22T02:06:37;18.20;99.90
10572;DHT22;5334;48.928;12.704;2023-06-22T02:09:08;18.20;99.90
10572;DHT22;5334;48.928;12.704;2023-06-22T02:11:36;18.20;99.90
10572;DHT22;5334;48.928;12.704;2023-06-22T02:14:02;18.20;99.90
10572;DHT22;5334;48.928;12.704;2023-06-22T02:16:31;18.20;99.90
10572;DHT22;5334;48.928;12.704;2023-06-22T02:18:56;18.20;99.90
10572;DHT22;5334;48.928;12.704;2023-06-22T02:21:27;18.20;99.90
10572;DHT22;5334;48.928;12.704;2023-06-22T02:23:52;18.30;99.90
10572;DHT22;5334;48.928;12.704;2023-06-22T02:26:18;18.40;99.90
10572;DHT22;5334;48.928;12.704;2023-06-22T02:28:44;18.40;99.90
10572;DHT22;5334;48.928;12.704;2023-06-22T02:31:11;18.40;99.90
10572;DHT22;5334;48.928;12.704;2023-06-22T02:33:36;18.40;99.90
10572;DHT22;5334;48.928;12.704;2023-06-22T02:36:02;18.40;99.90
10572;DHT22;5334;48.928;12.704;2023-06-22T02:38:35;18.30;99.90
10572;DHT22;5334;48.928;12.704;2023-06-22T02:41:02;18.30;99.90
10572;DHT22;5334;48.928;12.704;2023-06-22T02:43:28;18.30;99.90
10572;DHT22;5334;48.928;12.704;2023-06-22T02:45:53;18.30;99.90
10572;DHT22;5334;48.928;12.704;2023-06-22T02:48:19;18.30;99.90
10572;DHT22;5334;48.928;12.704;2023-06-22T02:50:45;18.30;99.90
10572;DHT22;5334;48.928;12.704;2023-06-22T02:53:10;18.30;99.90
10572;DHT22;5334;48.928;12.704;2023-06-22T02:55:36;18.20;99.90
10572;DHT22;5334;48.928;12.704;2023-06-22T02:58:02;18.20;99.90
10572;DHT22;5334;48.928;12.704;2023-06-22T03:00:31;18.20;99.90
10572;DHT22;5334;48.928;12.704;2023-06-22T03:02:57;18.10;99.90
10572;DHT22;5334;48.928;12.704;2023-06-22T03:05:23;18.20;99.90
10572;DHT22;5334;48.928;12.704;2023-06-22T03:07:49;18.10;99.90
10572;DHT22;5334;48.928;12.704;2023-06-22T03:10:15;18.20;99.90
10572;DHT22;5334;48.928;12.704;2023-06-22T03:12:42;18.20;99.90
10572;DHT22;5334;48.928;12.704;2023-06-22T03:15:10;18.20;99.90
10572;DHT22;5334;48.928;12.704;2023-06-22T03:17:37;18.20;99.90
10572;DHT22;5334;48.928;12.704;2023-06-22T03:20:04;18.20;99.90
10572;DHT22;5334;48.928;12.704;2023-06-22T03:22:37;18.20;99.90
10572;DHT22;5334;48.928;12.704;2023-06-22T03:25:02;18.30;99.90
10572;DHT22;5334;48.928;12.704;2023-06-22T03:27:28;18.30;99.90
10572;DHT22;5334;48.928;12.704;2023-06-22T03:29:54;18.30;99.90
10572;DHT22;5334;48.928;12.704;2023-06-22T03:32:19;18.40;99.90
10572;DHT22;5334;48.928;12.704;2023-06-22T03:34:45;18.40;99.90
10572;DHT22;5334;48.928;12.704;2023-06-22T03:37:16;18.40;99.90
10572;DHT22;5334;48.928;12.704;2023-06-22T03:39:42;18.50;99.90
10572;DHT22;5334;48.928;12.704;2023-06-22T03:42:08;18.50;99.90
10572;DHT22;5334;48.928;12.704;2023-06-22T03:44:34;18.60;99.90
10572;DHT22;5334;48.928;12.704;2023-06-22T03:47:02;18.70;99.90
10572;DHT22;5334;48.928;12.704;2023-06-22T03:49:28;18.70;99.90
10572;DHT22;5334;48.928;12.704;2023-06-22T03:51:53;18.80;99.90
10572;DHT22;5334;48.928;12.704;2023-06-22T03:54:19;18.90;99.90
10572;DHT22;5334;48.928;12.704;2023-06-22T03:56:45;19.00;99.90
10572;DHT22;5334;48.928;12.704;2023-06-22T03:59:10;18.90;99.90
10572;DHT22;5334;48.928;12.704;2023-06-22T04:01:36;19.00;99.90
10572;DHT22;5334;48.928;12.704;2023-06-22T04:04:02;19.00;99.90
10572;DHT22;5334;48.928;12.704;2023-06-22T04:06:27;19.00;99.90
10572;DHT22;5334;48.928;12.704;2023-06-22T04:11:19;19.00;99.90
10572;DHT22;5334;48.928;12.704;2023-06-22T04:13:45;19.00;99.90
10572;DHT22;5334;48.928;12.704;2023-06-22T04:16:11;19.10;99.90
10572;DHT22;5334;48.928;12.704;2023-06-22T04:18:36;19.20;99.90
10572;DHT22;5334;48.928;12.704;2023-06-22T04:21:03;19.30;99.90
10572;DHT22;5334;48.928;12.704;2023-06-22T04:23:28;19.40;99.90
10572;DHT22;5334;48.928;12.704;2023-06-22T04:25:54;19.50;99.90
10572;DHT22;5334;48.928;12.704;2023-06-22T04:28:22;19.60;99.90
10572;DHT22;5334;48.928;12.704;2023-06-22T04:30:47;19.70;99.90
10572;DHT22;5334;48.928;12.704;2023-06-22T04:33:15;19.70;99.90
10572;DHT22;5334;48.928;12.704;2023-06-22T04:35:41;19.70;99.90
10572;DHT22;5334;48.928;12.704;2023-06-22T04:38:07;19.60;99.90
10572;DHT22;5334;48.928;12.704;2023-06-22T04:40:33;19.70;99.90
10572;DHT22;5334;48.928;12.704;2023-06-22T04:42:59;19.80;99.90
10572;DHT22;5334;48.928;12.704;2023-06-22T04:45:28;19.80;99.90
10572;DHT22;5334;48.928;12.704;2023-06-22T04:47:54;20.00;99.90
10572;DHT22;5334;48.928;12.704;2023-06-22T04:52:50;20.30;99.90
10572;DHT22;5334;48.928;12.704;2023-06-22T04:55:16;20.40;99.90
10572;DHT22;5334;48.928;12.704;2023-06-22T04:57:48;20.40;99.90
10572;DHT22;5334;48.928;12.704;2023-06-22T05:00:18;20.40;99.90
10572;DHT22;5334;48.928;12.704;2023-06-22T05:02:49;20.40;99.90
10572;DHT22;5334;48.928;12.704;2023-06-22T05:07:50;20.70;99.90
10572;DHT22;5334;48.928;12.704;2023-06-22T05:10:18;21.00;99.90
10572;DHT22;5334;48.928;12.704;2023-06-22T05:12:45;21.20;99.90
10572;DHT22;5334;48.928;12.704;2023-06-22T05:15:11;21.30;99.90
10572;DHT22;5334;48.928;12.704;2023-06-22T05:17:37;21.40;99.90
10572;DHT22;5334;48.928;12.704;2023-06-22T05:22:34;21.60;99.90
10572;DHT22;5334;48.928;12.704;2023-06-22T05:25:00;21.70;99.90
10572;DHT22;5334;48.928;12.704;2023-06-22T05:27:26;21.80;99.90
10572;DHT22;5334;48.928;12.704;2023-06-22T05:29:52;22.00;99.90
10572;DHT22;5334;48.928;12.704;2023-06-22T05:32:17;22.10;99.90
10572;DHT22;5334;48.928;12.704;2023-06-22T05:34:44;22.30;99.90
10572;DHT22;5334;48.928;12.704;2023-06-22T05:37:09;22.50;99.90
10572;DHT22;5334;48.928;12.704;2023-06-22T05:39:36;22.60;99.90
10572;DHT22;5334;48.928;12.704;2023-06-22T05:42:07;22.80;99.90
10572;DHT22;5334;48.928;12.704;2023-06-22T05:44:33;23.00;99.90
10572;DHT22;5334;48.928;12.704;2023-06-22T05:46:59;23.20;99.90
10572;DHT22;5334;48.928;12.704;2023-06-22T05:49:25;23.50;99.90
10572;DHT22;5334;48.928;12.704;2023-06-22T05:51:55;23.70;99.90
10572;DHT22;5334;48.928;12.704;2023-06-22T05:54:22;23.80;99.90
10572;DHT22;5334;48.928;12.704;2023-06-22T05:56:48;23.80;99.90
10572;DHT22;5334;48.928;12.704;2023-06-22T05:59:13;23.80;99.90
10572;DHT22;5334;48.928;12.704;2023-06-22T06:01:39;23.80;99.90
10572;DHT22;5334;48.928;12.704;2023-06-22T06:04:05;23.80;99.90
10572;DHT22;5334;48.928;12.704;2023-06-22T06:06:33;24.00;99.90
10572;DHT22;5334;48.928;12.704;2023-06-22T06:09:00;24.10;99.90
10572;DHT22;5334;48.928;12.704;2023-06-22T06:11:26;24.20;99.90
10572;DHT22;5334;48.928;12.704;2023-06-22T06:13:52;24.30;99.90
10572;DHT22;5334;48.928;12.704;2023-06-22T06:16:17;24.40;99.90
10572;DHT22;5334;48.928;12.704;2023-06-22T06:18:43;24.50;99.90
10572;DHT22;5334;48.928;12.704;2023-06-22T06:21:08;24.50;99.90
10572;DHT22;5334;48.928;12.704;2023-06-22T06:23:34;24.40;99.90
10572;DHT22;5334;48.928;12.704;2023-06-22T06:26:00;24.60;99.90
10572;DHT22;5334;48.928;12.704;2023-06-22T06:28:26;24.80;99.90
10572;DHT22;5334;48.928;12.704;2023-06-22T06:30:52;24.90;99.90
10572;DHT22;5334;48.928;12.704;2023-06-22T06:33:18;25.00;99.90
10572;DHT22;5334;48.928;12.704;2023-06-22T06:35:44;25.20;99.90
10572;DHT22;5334;48.928;12.704;2023-06-22T06:38:10;25.30;99.90
10572;DHT22;5334;48.928;12.704;2023-06-22T06:40:36;25.40;99.90
10572;DHT22;5334;48.928;12.704;2023-06-22T06:43:01;25.70;99.90
10572;DHT22;5334;48.928;12.704;2023-06-22T06:45:27;25.80;99.90
10572;DHT22;5334;48.928;12.704;2023-06-22T06:47:54;25.80;99.90
10572;DHT22;5334;48.928;12.704;2023-06-22T06:50:20;25.70;99.90
10572;DHT22;5334;48.928;12.704;2023-06-22T06:52:45;25.60;99.90
10572;DHT22;5334;48.928;12.704;2023-06-22T06:55:11;25.70;99.90
10572;DHT22;5334;48.928;12.704;2023-06-22T06:57:41;25.80;99.90
10572;DHT22;5334;48.928;12.704;2023-06-22T07:00:08;25.80;99.90
10572;DHT22;5334;48.928;12.704;2023-06-22T07:02:38;25.90;99.90
10572;DHT22;5334;48.928;12.704;2023-06-22T07:05:05;26.10;99.90
10572;DHT22;5334;48.928;12.704;2023-06-22T07:07:31;26.20;99.90
10572;DHT22;5334;48.928;12.704;2023-06-22T07:09:56;26.30;99.90
10572;DHT22;5334;48.928;12.704;2023-06-22T07:12:22;26.70;99.90
10572;DHT22;5334;48.928;12.704;2023-06-22T07:14:48;26.70;99.90
10572;DHT22;5334;48.928;12.704;2023-06-22T07:17:14;26.90;99.90
10572;DHT22;5334;48.928;12.704;2023-06-22T07:19:39;27.20;99.90
10572;DHT22;5334;48.928;12.704;2023-06-22T07:22:05;27.30;99.90
10572;DHT22;5334;48.928;12.704;2023-06-22T07:24:31;27.40;99.90
10572;DHT22;5334;48.928;12.704;2023-06-22T07:26:58;27.50;99.90
10572;DHT22;5334;48.928;12.704;2023-06-22T07:29:25;27.50;99.90
10572;DHT22;5334;48.928;12.704;2023-06-22T07:31:52;27.50;99.90
10572;DHT22;5334;48.928;12.704;2023-06-22T07:34:18;27.70;99.90
10572;DHT22;5334;48.928;12.704;2023-06-22T07:36:44;27.90;99.90
10572;DHT22;5334;48.928;12.704;2023-06-22T07:39:10;28.00;99.90
10572;DHT22;5334;48.928;12.704;2023-06-22T07:41:37;28.00;99.90
10572;DHT22;5334;48.928;12.704;2023-06-22T07:44:02;28.10;99.90
10572;DHT22;5334;48.928;12.704;2023-06-22T07:46:29;28.10;99.90
10572;DHT22;5334;48.928;12.704;2023-06-22T07:48:56;28.40;99.90
10572;DHT22;5334;48.928;12.704;2023-06-22T07:51:22;28.70;99.90
10572;DHT22;5334;48.928;12.704;2023-06-22T07:53:47;29.00;99.90
10572;DHT22;5334;48.928;12.704;2023-06-22T07:56:13;29.30;99.90
10572;DHT22;5334;48.928;12.704;2023-06-22T07:58:44;29.30;99.90
10572;DHT22;5334;48.928;12.704;2023-06-22T08:01:10;29.10;99.90
10572;DHT22;5334;48.928;12.704;2023-06-22T08:03:36;29.00;99.90
10572;DHT22;5334;48.928;12.704;2023-06-22T08:06:02;29.10;99.90
10572;DHT22;5334;48.928;12.704;2023-06-22T08:08:28;29.40;99.90
10572;DHT22;5334;48.928;12.704;2023-06-22T08:13:19;29.90;99.90
10572;DHT22;5334;48.928;12.704;2023-06-22T08:15:45;30.20;99.90
10572;DHT22;5334;48.928;12.704;2023-06-22T08:18:11;30.30;99.90
10572;DHT22;5334;48.928;12.704;2023-06-22T08:20:36;30.40;99.90
10572;DHT22;5334;48.928;12.704;2023-06-22T08:23:02;30.80;99.90
10572;DHT22;5334;48.928;12.704;2023-06-22T08:25:32;31.00;99.90
10572;DHT22;5334;48.928;12.704;2023-06-22T08:27:59;31.00;99.90
10572;DHT22;5334;48.928;12.704;2023-06-22T08:30:25;30.80;99.30
10572;DHT22;5334;48.928;12.704;2023-06-22T08:32:50;30.90;99.90
10572;DHT22;5334;48.928;12.704;2023-06-22T08:37:42;31.30;99.90
10572;DHT22;5334;48.928;12.704;2023-06-22T08:40:09;31.20;99.90
10572;DHT22;5334;48.928;12.704;2023-06-22T08:42:36;31.40;99.90
10572;DHT22;5334;48.928;12.704;2023-06-22T08:45:02;31.70;99.90
10572;DHT22;5334;48.928;12.704;2023-06-22T08:47:28;31.50;99.90
10572;DHT22;5334;48.928;12.704;2023-06-22T08:49:54;31.40;99.70
10572;DHT22;5334;48.928;12.704;2023-06-22T08:52:20;31.50;99.90
10572;DHT22;5334;48.928;12.704;2023-06-22T08:54:46;31.60;98.70
10572;DHT22;5334;48.928;12.704;2023-06-22T08:57:12;32.10;97.60
10572;DHT22;5334;48.928;12.704;2023-06-22T08:59:38;32.20;99.40
10572;DHT22;5334;48.928;12.704;2023-06-22T09:02:04;32.40;99.40
10572;DHT22;5334;48.928;12.704;2023-06-22T09:04:29;32.30;99.20
10572;DHT22;5334;48.928;12.704;2023-06-22T09:06:55;32.10;98.50
10572;DHT22;5334;48.928;12.704;2023-06-22T09:09:21;32.00;98.60
10572;DHT22;5334;48.928;12.704;2023-06-22T09:11:47;31.40;98.80
10572;DHT22;5334;48.928;12.704;2023-06-22T09:14:13;31.20;98.90
10572;DHT22;5334;48.928;12.704;2023-06-22T09:16:38;31.10;99.10
10572;DHT22;5334;48.928;12.704;2023-06-22T09:19:04;31.30;99.00
10572;DHT22;5334;48.928;12.704;2023-06-22T09:21:30;31.20;98.60
10572;DHT22;5334;48.928;12.704;2023-06-22T09:23:55;31.20;99.10
10572;DHT22;5334;48.928;12.704;2023-06-22T09:26:22;31.30;98.90
10572;DHT22;5334;48.928;12.704;2023-06-22T09:28:49;31.60;98.80
10572;DHT22;5334;48.928;12.704;2023-06-22T09:31:15;31.60;98.10
10572;DHT22;5334;48.928;12.704;2023-06-22T09:33:42;31.80;98.90
10572;DHT22;5334;48.928;12.704;2023-06-22T09:36:07;31.50;98.30
10572;DHT22;5334;48.928;12.704;2023-06-22T09:38:36;31.60;99.20
10572;DHT22;5334;48.928;12.704;2023-06-22T09:41:02;31.60;98.00
10572;DHT22;5334;48.928;12.704;2023-06-22T09:43:28;31.60;98.50
10572;DHT22;5334;48.928;12.704;2023-06-22T09:45:53;31.60;98.50
10572;DHT22;5334;48.928;12.704;2023-06-22T09:48:19;31.70;97.80
10572;DHT22;5334;48.928;12.704;2023-06-22T09:50:45;31.60;97.90
10572;DHT22;5334;48.928;12.704;2023-06-22T09:53:10;31.60;98.40
10572;DHT22;5334;48.928;12.704;2023-06-22T09:55:36;31.60;98.30
10572;DHT22;5334;48.928;12.704;2023-06-22T09:58:02;31.60;98.50
10572;DHT22;5334;48.928;12.704;2023-06-22T10:00:27;31.40;98.50
10572;DHT22;5334;48.928;12.704;2023-06-22T10:02:53;31.50;98.50
10572;DHT22;5334;48.928;12.704;2023-06-22T10:05:19;32.10;97.70
10572;DHT22;5334;48.928;12.704;2023-06-22T10:07:45;32.40;97.20
10572;DHT22;5334;48.928;12.704;2023-06-22T10:10:11;32.50;97.70
10572;DHT22;5334;48.928;12.704;2023-06-22T10:12:42;32.80;96.80
10572;DHT22;5334;48.928;12.704;2023-06-22T10:15:08;32.80;96.70
10572;DHT22;5334;48.928;12.704;2023-06-22T10:17:34;32.80;97.00
10572;DHT22;5334;48.928;12.704;2023-06-22T10:20:00;33.20;97.00
10572;DHT22;5334;48.928;12.704;2023-06-22T10:22:30;33.50;96.00
10572;DHT22;5334;48.928;12.704;2023-06-22T10:24:56;33.40;96.40
10572;DHT22;5334;48.928;12.704;2023-06-22T10:27:22;33.60;95.60
10572;DHT22;5334;48.928;12.704;2023-06-22T10:29:47;33.80;96.00
10572;DHT22;5334;48.928;12.704;2023-06-22T10:32:13;34.10;95.60
10572;DHT22;5334;48.928;12.704;2023-06-22T10:34:39;34.40;95.90
10572;DHT22;5334;48.928;12.704;2023-06-22T10:37:04;34.20;95.20
10572;DHT22;5334;48.928;12.704;2023-06-22T10:39:30;34.30;95.10
10572;DHT22;5334;48.928;12.704;2023-06-22T10:41:56;34.50;94.90
10572;DHT22;5334;48.928;12.704;2023-06-22T10:44:21;34.20;95.60
10572;DHT22;5334;48.928;12.704;2023-06-22T10:46:47;33.90;95.20
10572;DHT22;5334;48.928;12.704;2023-06-22T10:49:13;33.70;94.80
10572;DHT22;5334;48.928;12.704;2023-06-22T10:51:38;33.80;95.50
10572;DHT22;5334;48.928;12.704;2023-06-22T10:54:04;34.20;95.20
10572;DHT22;5334;48.928;12.704;2023-06-22T10:56:30;34.30;94.80
10572;DHT22;5334;48.928;12.704;2023-06-22T10:58:55;34.40;95.50
10572;DHT22;5334;48.928;12.704;2023-06-22T11:01:21;34.50;95.10
10572;DHT22;5334;48.928;12.704;2023-06-22T11:03:47;34.60;95.00
10572;DHT22;5334;48.928;12.704;2023-06-22T11:06:12;34.60;94.60
10572;DHT22;5334;48.928;12.704;2023-06-22T11:08:40;34.50;95.00
10572;DHT22;5334;48.928;12.704;2023-06-22T11:11:05;34.40;93.90
10572;DHT22;5334;48.928;12.704;2023-06-22T11:13:31;34.10;93.90
10572;DHT22;5334;48.928;12.704;2023-06-22T11:15:56;34.10;94.80
10572;DHT22;5334;48.928;12.704;2023-06-22T11:18:22;34.20;94.10
10572;DHT22;5334;48.928;12.704;2023-06-22T11:20:48;34.50;93.90
10572;DHT22;5334;48.928;12.704;2023-06-22T11:25:40;35.20;93.40
10572;DHT22;5334;48.928;12.704;2023-06-22T11:28:07;35.00;92.10
10572;DHT22;5334;48.928;12.704;2023-06-22T11:30:33;34.80;91.90
10572;DHT22;5334;48.928;12.704;2023-06-22T11:32:59;34.80;92.10
10572;DHT22;5334;48.928;12.704;2023-06-22T11:35:26;34.80;92.20
10572;DHT22;5334;48.928;12.704;2023-06-22T11:37:51;35.00;92.20
10572;DHT22;5334;48.928;12.704;2023-06-22T11:40:17;34.90;91.90
10572;DHT22;5334;48.928;12.704;2023-06-22T11:42:43;35.10;91.90
10572;DHT22;5334;48.928;12.704;2023-06-22T11:45:09;35.30;91.40
10572;DHT22;5334;48.928;12.704;2023-06-22T11:47:35;35.60;90.80
10572;DHT22;5334;48.928;12.704;2023-06-22T11:50:02;35.50;90.60
10572;DHT22;5334;48.928;12.704;2023-06-22T11:52:28;35.20;90.60
10572;DHT22;5334;48.928;12.704;2023-06-22T11:54:54;35.00;91.70
10572;DHT22;5334;48.928;12.704;2023-06-22T11:57:19;34.70;91.50
10572;DHT22;5334;48.928;12.704;2023-06-22T11:59:45;34.70;91.50
10572;DHT22;5334;48.928;12.704;2023-06-22T12:02:11;34.60;90.90
10572;DHT22;5334;48.928;12.704;2023-06-22T12:04:36;34.50;90.50
10572;DHT22;5334;48.928;12.704;2023-06-22T12:07:03;34.80;91.70
10572;DHT22;5334;48.928;12.704;2023-06-22T12:09:29;35.10;90.50
10572;DHT22;5334;48.928;12.704;2023-06-22T12:11:54;35.40;89.40
10572;DHT22;5334;48.928;12.704;2023-06-22T12:14:20;35.40;89.10
10572;DHT22;5334;48.928;12.704;2023-06-22T12:16:45;35.50;87.80
10572;DHT22;5334;48.928;12.704;2023-06-22T12:19:11;35.40;90.00
10572;DHT22;5334;48.928;12.704;2023-06-22T12:21:37;35.90;89.60
10572;DHT22;5334;48.928;12.704;2023-06-22T12:24:03;36.30;86.70
10572;DHT22;5334;48.928;12.704;2023-06-22T12:26:29;36.70;86.80
10572;DHT22;5334;48.928;12.704;2023-06-22T12:28:54;36.90;86.30
10572;DHT22;5334;48.928;12.704;2023-06-22T12:31:20;36.40;85.50
10572;DHT22;5334;48.928;12.704;2023-06-22T12:33:46;35.70;83.30
10572;DHT22;5334;48.928;12.704;2023-06-22T12:36:11;34.90;85.10
10572;DHT22;5334;48.928;12.704;2023-06-22T12:38:37;34.40;87.00
10572;DHT22;5334;48.928;12.704;2023-06-22T12:41:03;34.30;88.20
10572;DHT22;5334;48.928;12.704;2023-06-22T12:43:28;34.70;87.80
10572;DHT22;5334;48.928;12.704;2023-06-22T12:45:54;35.10;86.00
10572;DHT22;5334;48.928;12.704;2023-06-22T12:48:19;35.40;86.20
10572;DHT22;5334;48.928;12.704;2023-06-22T12:50:45;35.50;88.10
10572;DHT22;5334;48.928;12.704;2023-06-22T12:53:13;35.80;84.50
10572;DHT22;5334;48.928;12.704;2023-06-22T12:55:39;35.80;84.80
10572;DHT22;5334;48.928;12.704;2023-06-22T12:58:04;35.60;86.10
10572;DHT22;5334;48.928;12.704;2023-06-22T13:00:30;35.40;85.70
10572;DHT22;5334;48.928;12.704;2023-06-22T13:02:56;35.30;84.50
10572;DHT22;5334;48.928;12.704;2023-06-22T13:05:21;35.40;84.70
10572;DHT22;5334;48.928;12.704;2023-06-22T13:07:47;35.40;84.80
10572;DHT22;5334;48.928;12.704;2023-06-22T13:10:13;35.50;84.10
10572;DHT22;5334;48.928;12.704;2023-06-22T13:12:38;35.60;84.20
10572;DHT22;5334;48.928;12.704;2023-06-22T13:15:04;35.90;84.20
10572;DHT22;5334;48.928;12.704;2023-06-22T13:17:30;36.30;82.80
10572;DHT22;5334;48.928;12.704;2023-06-22T13:19:56;36.50;81.10
10572;DHT22;5334;48.928;12.704;2023-06-22T13:22:30;36.60;81.00
10572;DHT22;5334;48.928;12.704;2023-06-22T13:24:56;36.80;82.00
10572;DHT22;5334;48.928;12.704;2023-06-22T13:27:22;37.00;80.50
10572;DHT22;5334;48.928;12.704;2023-06-22T13:29:48;37.10;80.00
10572;DHT22;5334;48.928;12.704;2023-06-22T13:32:14;37.00;79.10
10572;DHT22;5334;48.928;12.704;2023-06-22T13:34:39;36.80;79.10
10572;DHT22;5334;48.928;12.704;2023-06-22T13:37:05;36.80;78.90
10572;DHT22;5334;48.928;12.704;2023-06-22T13:39:31;37.00;78.50
10572;DHT22;5334;48.928;12.704;2023-06-22T13:41:57;37.10;78.50
10572;DHT22;5334;48.928;12.704;2023-06-22T13:44:23;37.00;77.90
10572;DHT22;5334;48.928;12.704;2023-06-22T13:46:53;37.00;77.50
10572;DHT22;5334;48.928;12.704;2023-06-22T13:49:18;37.20;77.10
10572;DHT22;5334;48.928;12.704;2023-06-22T13:51:44;37.30;76.30
10572;DHT22;5334;48.928;12.704;2023-06-22T13:54:09;37.30;77.60
10572;DHT22;5334;48.928;12.704;2023-06-22T13:56:35;37.40;76.00
10572;DHT22;5334;48.928;12.704;2023-06-22T13:59:01;37.20;76.30
10572;DHT22;5334;48.928;12.704;2023-06-22T14:01:26;37.10;74.60
10572;DHT22;5334;48.928;12.704;2023-06-22T14:03:52;37.00;75.20
10572;DHT22;5334;48.928;12.704;2023-06-22T14:06:18;37.00;73.70
10572;DHT22;5334;48.928;12.704;2023-06-22T14:08:43;37.10;75.50
10572;DHT22;5334;48.928;12.704;2023-06-22T14:11:10;37.00;76.30
10572;DHT22;5334;48.928;12.704;2023-06-22T14:13:35;36.90;75.60
10572;DHT22;5334;48.928;12.704;2023-06-22T14:16:01;37.00;74.20
10572;DHT22;5334;48.928;12.704;2023-06-22T14:18:27;37.10;74.60
10572;DHT22;5334;48.928;12.704;2023-06-22T14:20:52;37.00;74.50
10572;DHT22;5334;48.928;12.704;2023-06-22T14:23:18;36.70;75.30
10572;DHT22;5334;48.928;12.704;2023-06-22T14:25:44;36.70;74.70
10572;DHT22;5334;48.928;12.704;2023-06-22T14:28:09;36.70;75.00
10572;DHT22;5334;48.928;12.704;2023-06-22T14:30:35;36.90;76.10
10572;DHT22;5334;48.928;12.704;2023-06-22T14:33:01;37.20;76.60
10572;DHT22;5334;48.928;12.704;2023-06-22T14:35:26;37.20;73.70
10572;DHT22;5334;48.928;12.704;2023-06-22T14:37:52;37.10;73.30
10572;DHT22;5334;48.928;12.704;2023-06-22T14:40:17;37.00;74.40
10572;DHT22;5334;48.928;12.704;2023-06-22T14:42:43;37.00;74.50
10572;DHT22;5334;48.928;12.704;2023-06-22T14:45:09;37.00;74.40
10572;DHT22;5334;48.928;12.704;2023-06-22T14:47:35;36.80;74.50
10572;DHT22;5334;48.928;12.704;2023-06-22T14:50:00;36.60;75.70
10572;DHT22;5334;48.928;12.704;2023-06-22T14:52:26;36.50;75.30
10572;DHT22;5334;48.928;12.704;2023-06-22T14:54:53;36.40;74.60
10572;DHT22;5334;48.928;12.704;2023-06-22T14:57:19;36.30;75.50
10572;DHT22;5334;48.928;12.704;2023-06-22T14:59:49;36.20;77.80
10572;DHT22;5334;48.928;12.704;2023-06-22T15:02:15;36.10;76.50
10572;DHT22;5334;48.928;12.704;2023-06-22T15:04:41;36.00;77.20
10572;DHT22;5334;48.928;12.704;2023-06-22T15:07:07;35.80;78.60
10572;DHT22;5334;48.928;12.704;2023-06-22T15:09:32;35.40;77.00
10572;DHT22;5334;48.928;12.704;2023-06-22T15:11:58;35.20;76.10
10572;DHT22;5334;48.928;12.704;2023-06-22T15:14:27;35.30;77.90
10572;DHT22;5334;48.928;12.704;2023-06-22T15:16:53;35.40;78.70
10572;DHT22;5334;48.928;12.704;2023-06-22T15:19:18;35.40;78.60
10572;DHT22;5334;48.928;12.704;2023-06-22T15:21:44;35.50;78.70
10572;DHT22;5334;48.928;12.704;2023-06-22T15:24:11;35.50;76.40
10572;DHT22;5334;48.928;12.704;2023-06-22T15:26:36;35.60;79.50
10572;DHT22;5334;48.928;12.704;2023-06-22T15:29:02;35.50;77.30
10572;DHT22;5334;48.928;12.704;2023-06-22T15:31:29;35.60;77.20
10572;DHT22;5334;48.928;12.704;2023-06-22T15:33:54;35.50;78.10
10572;DHT22;5334;48.928;12.704;2023-06-22T15:36:20;35.50;76.70
10572;DHT22;5334;48.928;12.704;2023-06-22T15:38:46;35.30;78.50
10572;DHT22;5334;48.928;12.704;2023-06-22T15:41:12;35.30;79.90
10572;DHT22;5334;48.928;12.704;2023-06-22T15:43:38;35.40;78.70
10572;DHT22;5334;48.928;12.704;2023-06-22T15:46:03;35.30;79.70
10572;DHT22;5334;48.928;12.704;2023-06-22T15:48:30;35.20;79.20